Time;durP1;ratioP1;P1;durP2;ratioP2;P2;SDS_P1;SDS_P2;PMS_P1;PMS_P2;Temp;Humidity;BMP_temperature;BMP_pressure;BME280_temperature;BME280_humidity;BME280_pressure;Samples;Min_cycle;Max_cycle;Signal;HPM_P1;HPM_P2
2021/08/03 00:04:05;;;;;;;1.83;0.63;;;14.00;99.90;;;;;;20554166;28;20425;-86
2021/08/03 00:14:06;;;;;;;2.50;0.52;;;14.00;99.90;;;;;;20559204;28;20503;-86
2021/08/03 00:24:08;;;;;;;3.05;0.60;;;14.00;99.90;;;;;;20600976;28;20495;-86
2021/08/03 00:34:09;;;;;;;1.60;0.98;;;14.00;99.90;;;;;;20569139;28;20418;-86
2021/08/03 00:44:10;;;;;;;1.95;0.80;;;13.80;99.90;;;;;;20572431;28;20052;-86
2021/08/03 00:54:12;;;;;;;1.40;0.63;;;13.80;99.90;;;;;;20600032;28;20042;-86
2021/08/03 01:04:15;;;;;;;2.28;0.50;;;13.80;99.90;;;;;;20547675;28;20102;-86
2021/08/03 01:14:26;;;;;;;1.48;0.55;;;13.80;99.90;;;;;;20568572;28;20510;-86
2021/08/03 01:24:52;;;;;;;1.25;0.55;;;13.70;99.90;;;;;;20617318;28;20042;-86
2021/08/03 01:34:54;;;;;;;2.60;0.70;;;13.60;99.90;;;;;;20601035;28;20081;-85
2021/08/03 01:44:58;;;;;;;2.65;0.57;;;13.60;99.90;;;;;;20579640;28;20565;-85
2021/08/03 01:55:00;;;;;;;2.00;0.70;;;13.60;99.90;;;;;;20572073;28;20080;-85
2021/08/03 02:05:02;;;;;;;1.58;0.30;;;13.50;99.90;;;;;;20577641;28;20042;-84
2021/08/03 02:15:06;;;;;;;2.85;0.80;;;13.50;99.90;;;;;;20585352;28;20027;-85
2021/08/03 02:25:09;;;;;;;1.30;0.40;;;13.30;99.90;;;;;;20583876;28;20056;-84
2021/08/03 02:35:20;;;;;;;1.30;0.52;;;13.30;99.90;;;;;;20572361;28;20046;-85
2021/08/03 02:45:22;;;;;;;2.00;0.50;;;13.30;99.90;;;;;;20590823;28;20130;-86
2021/08/03 02:55:39;;;;;;;1.63;0.55;;;13.30;99.90;;;;;;20568882;28;20493;-86
2021/08/03 03:05:43;;;;;;;1.23;0.45;;;13.30;99.90;;;;;;20569025;28;20059;-86
2021/08/03 03:15:45;;;;;;;1.27;0.30;;;13.30;99.90;;;;;;20577698;28;20038;-86
2021/08/03 03:25:50;;;;;;;4.43;0.50;;;13.10;99.90;;;;;;20576674;28;20085;-86
2021/08/03 03:35:55;;;;;;;0.52;0.10;;;13.00;99.90;;;;;;20592381;28;20066;-86
2021/08/03 03:46:01;;;;;;;1.42;0.52;;;13.00;99.90;;;;;;20602135;28;20054;-85
2021/08/03 03:56:06;;;;;;;1.17;0.40;;;12.90;99.90;;;;;;20589818;28;20122;-85
2021/08/03 04:06:08;;;;;;;0.55;0.38;;;12.90;99.90;;;;;;20562465;28;20054;-85
2021/08/03 04:16:09;;;;;;;1.15;0.90;;;12.70;99.90;;;;;;20594843;28;20086;-86
2021/08/03 04:26:11;;;;;;;1.88;0.63;;;12.70;99.90;;;;;;20583366;28;20054;-86
2021/08/03 04:36:12;;;;;;;0.70;0.30;;;12.70;99.90;;;;;;20542934;28;20066;-85
2021/08/03 04:46:14;;;;;;;1.95;0.63;;;12.60;99.90;;;;;;20581705;28;20050;-86
2021/08/03 04:56:15;;;;;;;2.63;0.68;;;12.60;99.90;;;;;;20564517;28;20030;-85
2021/08/03 05:06:16;;;;;;;5.25;0.70;;;12.70;99.90;;;;;;20568285;28;20058;-85
2021/08/03 05:16:17;;;;;;;2.13;0.50;;;12.80;99.90;;;;;;20610411;28;20031;-85
2021/08/03 05:26:20;;;;;;;1.23;0.40;;;12.90;99.90;;;;;;20608262;28;20043;-85
2021/08/03 05:36:21;;;;;;;1.67;0.52;;;13.20;99.90;;;;;;20568889;28;20050;-85
2021/08/03 05:46:22;;;;;;;2.15;0.60;;;13.40;99.90;;;;;;20599876;28;20073;-84
2021/08/03 05:56:23;;;;;;;1.58;0.65;;;13.70;99.90;;;;;;20573676;28;20053;-84
2021/08/03 06:06:29;;;;;;;1.90;0.73;;;13.90;99.90;;;;;;20537239;28;20040;-85
2021/08/03 06:16:31;;;;;;;1.55;0.60;;;14.10;99.90;;;;;;20552295;28;20052;-85
2021/08/03 06:26:33;;;;;;;1.45;0.50;;;14.30;99.90;;;;;;20532159;28;20050;-85
2021/08/03 06:36:36;;;;;;;3.97;0.60;;;14.50;99.90;;;;;;20587670;28;20057;-84
2021/08/03 06:46:43;;;;;;;1.25;0.60;;;14.60;99.90;;;;;;20569049;28;20039;-85
2021/08/03 06:56:54;;;;;;;0.90;0.35;;;15.10;99.90;;;;;;20577204;28;20046;-86
2021/08/03 07:06:59;;;;;;;0.68;0.35;;;15.50;99.90;;;;;;20569002;28;20067;-83
2021/08/03 07:17:03;;;;;;;0.77;0.28;;;15.60;99.90;;;;;;20615626;28;20054;-86
2021/08/03 07:27:05;;;;;;;0.82;0.35;;;15.60;99.90;;;;;;20560512;28;20038;-86
2021/08/03 07:37:07;;;;;;;0.65;0.22;;;15.70;99.90;;;;;;20593654;28;20046;-85
2021/08/03 07:47:08;;;;;;;1.13;0.30;;;15.90;99.90;;;;;;20544894;28;20039;-86
2021/08/03 07:57:09;;;;;;;0.85;0.32;;;16.10;99.90;;;;;;20584955;28;20046;-86
2021/08/03 08:07:11;;;;;;;3.33;0.85;;;16.40;99.90;;;;;;20580221;28;20034;-86
2021/08/03 08:17:12;;;;;;;1.40;0.30;;;16.40;99.90;;;;;;20568506;28;20054;-86
2021/08/03 08:27:13;;;;;;;2.47;0.43;;;16.50;99.90;;;;;;20562029;28;20073;-86
2021/08/03 08:37:14;;;;;;;0.88;0.50;;;16.70;99.90;;;;;;20591123;28;20057;-86
2021/08/03 08:47:16;;;;;;;1.33;0.93;;;16.90;99.90;;;;;;20601875;28;20117;-86
2021/08/03 08:57:18;;;;;;;0.85;0.30;;;17.10;99.90;;;;;;20543793;28;20210;-86
2021/08/03 09:07:19;;;;;;;2.05;0.35;;;17.90;99.90;;;;;;20546927;28;20105;-85
2021/08/03 09:17:28;;;;;;;1.00;0.32;;;17.70;99.90;;;;;;20570559;28;20104;-86
2021/08/03 09:27:32;;;;;;;3.40;0.22;;;17.60;99.90;;;;;;20603291;28;20051;-86
2021/08/03 09:37:37;;;;;;;0.90;0.30;;;17.50;99.90;;;;;;20591793;28;20137;-85
2021/08/03 09:47:38;;;;;;;0.45;0.20;;;18.00;99.90;;;;;;20572860;28;20035;-86
2021/08/03 09:57:40;;;;;;;1.30;0.20;;;18.80;99.90;;;;;;20544149;28;20039;-85
2021/08/03 10:07:42;;;;;;;2.50;0.30;;;19.20;99.90;;;;;;20583087;28;20142;-86
2021/08/03 10:17:44;;;;;;;1.05;0.20;;;19.10;99.90;;;;;;20578287;28;20042;-85
2021/08/03 10:27:50;;;;;;;0.93;0.30;;;18.90;99.90;;;;;;20563631;28;20046;-86
2021/08/03 10:38:00;;;;;;;0.70;0.25;;;19.60;99.90;;;;;;20569072;28;20058;-82
2021/08/03 10:48:01;;;;;;;0.35;0.10;;;20.00;99.90;;;;;;20581428;28;20120;-85
2021/08/03 10:58:09;;;;;;;1.77;0.50;;;20.40;99.90;;;;;;20559415;28;20050;-85
2021/08/03 11:08:47;;;;;;;1.08;0.60;;;20.40;99.90;;;;;;20574164;28;20058;-85
2021/08/03 11:18:50;;;;;;;2.03;0.93;;;20.00;99.90;;;;;;20471126;28;20122;-87
2021/08/03 11:29:13;;;;;;;4.13;0.90;;;19.70;99.90;;;;;;20590833;28;20383;-86
2021/08/03 11:39:23;;;;;;;2.28;0.70;;;19.90;99.90;;;;;;20584319;28;20053;-85
2021/08/03 11:49:33;;;;;;;2.33;0.60;;;20.20;99.90;;;;;;20589728;28;20035;-86
2021/08/03 11:59:36;;;;;;;2.20;0.90;;;20.10;99.90;;;;;;20550733;28;20047;-86
2021/08/03 12:09:37;;;;;;;5.70;1.40;;;19.50;99.90;;;;;;20558653;28;20080;-86
2021/08/03 12:19:38;;;;;;;1.10;0.55;;;19.10;99.90;;;;;;20585208;28;20049;-86
2021/08/03 12:29:40;;;;;;;1.13;0.40;;;18.70;99.90;;;;;;20574195;28;20062;-86
2021/08/03 12:39:43;;;;;;;3.55;0.93;;;18.50;99.90;;;;;;20566787;28;20070;-87
2021/08/03 12:49:48;;;;;;;1.20;0.50;;;18.20;99.90;;;;;;20589607;28;20112;-86
2021/08/03 12:59:50;;;;;;;3.65;0.75;;;18.00;99.90;;;;;;20635786;28;20122;-85
2021/08/03 13:09:51;;;;;;;1.23;0.52;;;17.90;99.90;;;;;;20546497;28;20551;-86
2021/08/03 13:19:52;;;;;;;2.58;1.13;;;17.90;99.90;;;;;;20540333;28;20051;-86
2021/08/03 13:29:53;;;;;;;2.40;0.70;;;18.00;99.90;;;;;;20559270;28;20065;-85
2021/08/03 13:39:55;;;;;;;3.17;1.30;;;18.10;99.90;;;;;;20571080;28;20043;-86
2021/08/03 13:49:56;;;;;;;5.55;2.75;;;18.20;99.90;;;;;;20518558;28;20046;-86
2021/08/03 13:59:57;;;;;;;6.20;3.25;;;19.30;99.90;;;;;;20551641;28;20587;-86
2021/08/03 14:09:58;;;;;;;3.42;1.42;;;20.00;99.90;;;;;;20567230;28;20694;-85
2021/08/03 14:19:59;;;;;;;4.72;1.30;;;19.60;99.90;;;;;;20526220;28;20046;-85
2021/08/03 14:30:01;;;;;;;2.15;1.20;;;19.30;99.90;;;;;;20551346;28;20832;-85
2021/08/03 14:40:03;;;;;;;2.55;1.50;;;19.00;99.90;;;;;;20550004;28;20528;-86
2021/08/03 14:50:05;;;;;;;4.10;1.00;;;18.70;99.90;;;;;;20564715;28;20623;-86
2021/08/03 15:00:07;;;;;;;2.05;0.65;;;18.70;99.90;;;;;;20570266;28;20506;-86
2021/08/03 15:10:09;;;;;;;3.10;1.35;;;18.80;99.90;;;;;;20575741;28;20047;-86
2021/08/03 15:20:11;;;;;;;2.25;1.08;;;18.80;99.90;;;;;;20532476;28;22108;-86
2021/08/03 15:30:12;;;;;;;1.65;0.60;;;19.00;99.90;;;;;;20600412;28;20577;-86
2021/08/03 15:40:14;;;;;;;1.77;0.73;;;19.30;99.90;;;;;;20563023;28;20085;-86
2021/08/03 15:50:15;;;;;;;1.98;0.93;;;19.40;99.90;;;;;;20557851;28;20113;-86
2021/08/03 16:00:16;;;;;;;2.70;0.80;;;19.10;99.90;;;;;;20515416;28;20113;-86
2021/08/03 16:10:17;;;;;;;3.15;1.05;;;18.90;99.90;;;;;;20586479;28;20819;-86
2021/08/03 16:20:19;;;;;;;4.10;0.88;;;18.90;99.90;;;;;;20553673;28;22431;-84
2021/08/03 16:30:20;;;;;;;1.52;0.70;;;18.90;99.90;;;;;;20579656;28;20046;-84
2021/08/03 16:40:21;;;;;;;8.40;1.00;;;19.10;99.90;;;;;;20594465;28;20677;-85
2021/08/03 16:50:24;;;;;;;3.50;1.48;;;19.30;99.90;;;;;;20574745;28;20110;-86
2021/08/03 17:00:25;;;;;;;1.52;0.60;;;19.30;99.90;;;;;;20579577;28;20661;-85
2021/08/03 17:10:34;;;;;;;2.67;1.13;;;19.20;99.90;;;;;;20578547;28;20704;-86
2021/08/03 17:20:42;;;;;;;2.13;0.80;;;19.20;99.90;;;;;;20575982;28;20053;-86
2021/08/03 17:30:44;;;;;;;2.58;1.02;;;19.00;99.90;;;;;;20567890;28;20046;-84
2021/08/03 17:40:49;;;;;;;3.00;0.73;;;18.80;99.90;;;;;;20534627;28;20099;-82
2021/08/03 17:50:52;;;;;;;1.92;0.70;;;18.70;99.90;;;;;;20557649;28;20155;-84
2021/08/03 18:00:54;;;;;;;1.88;0.60;;;18.50;99.90;;;;;;20556788;28;20537;-85
2021/08/03 18:10:56;;;;;;;1.95;0.70;;;18.50;99.90;;;;;;20561271;28;20042;-87
2021/08/03 18:21:03;;;;;;;1.27;0.60;;;18.40;99.90;;;;;;20555594;28;20046;-87
2021/08/03 18:31:12;;;;;;;1.75;0.60;;;18.20;99.90;;;;;;20590738;28;20053;-86
2021/08/03 18:41:17;;;;;;;1.80;0.60;;;18.20;99.90;;;;;;20586459;28;20422;-86
2021/08/03 18:51:18;;;;;;;3.85;0.80;;;17.90;99.90;;;;;;20564949;28;20037;-87
2021/08/03 19:01:25;;;;;;;1.02;0.50;;;17.80;99.90;;;;;;20551720;28;20117;-87
2021/08/03 19:11:27;;;;;;;1.10;0.50;;;17.80;99.90;;;;;;20568663;28;20034;-87
2021/08/03 19:21:29;;;;;;;2.22;0.65;;;17.60;99.90;;;;;;20560716;28;20057;-87
2021/08/03 19:31:30;;;;;;;2.92;1.27;;;17.40;99.90;;;;;;20551586;28;20035;-87
2021/08/03 19:41:31;;;;;;;1.83;0.70;;;17.20;99.90;;;;;;20558253;28;20054;-87
2021/08/03 19:51:33;;;;;;;1.58;0.70;;;17.10;99.90;;;;;;20578454;28;20049;-87
2021/08/03 20:01:35;;;;;;;1.65;0.70;;;16.90;99.90;;;;;;20561852;28;20141;-87
2021/08/03 20:11:36;;;;;;;1.23;0.60;;;16.60;99.90;;;;;;20591117;28;20109;-87
2021/08/03 20:21:41;;;;;;;1.88;0.90;;;16.40;99.90;;;;;;20519121;28;20042;-87
2021/08/03 20:31:54;;;;;;;1.30;0.95;;;16.20;99.90;;;;;;20565519;28;20129;-86
2021/08/03 20:41:55;;;;;;;1.95;0.95;;;16.00;99.90;;;;;;20579913;28;20110;-86
2021/08/03 20:51:57;;;;;;;1.90;0.88;;;15.80;99.90;;;;;;20546436;28;20042;-86
2021/08/03 21:02:05;;;;;;;3.72;1.10;;;15.70;99.90;;;;;;20554033;28;20105;-86
2021/08/03 21:12:08;;;;;;;3.40;1.30;;;15.40;99.90;;;;;;20540276;28;20048;-86
2021/08/03 21:22:10;;;;;;;2.25;0.70;;;15.40;99.90;;;;;;20534841;28;20071;-87
2021/08/03 21:32:11;;;;;;;1.40;0.63;;;15.20;99.90;;;;;;20555094;28;20043;-86
2021/08/03 21:42:12;;;;;;;4.03;0.90;;;15.10;99.90;;;;;;20563129;28;20094;-86
2021/08/03 21:52:13;;;;;;;1.55;0.85;;;15.10;99.90;;;;;;20544615;28;20039;-87
2021/08/03 22:02:14;;;;;;;1.30;0.60;;;15.00;99.90;;;;;;20526968;28;20100;-86
2021/08/03 22:12:16;;;;;;;1.65;0.60;;;14.90;99.90;;;;;;20539439;28;20069;-87
2021/08/03 22:22:17;;;;;;;2.25;1.10;;;14.80;99.90;;;;;;20517384;28;20050;-87
2021/08/03 22:32:19;;;;;;;2.17;1.00;;;14.70;99.90;;;;;;20567543;28;20054;-86
2021/08/03 22:42:20;;;;;;;1.48;0.68;;;14.70;99.90;;;;;;20562415;28;20061;-86
2021/08/03 22:52:21;;;;;;;5.25;1.48;;;14.50;99.90;;;;;;20542916;28;20091;-86
2021/08/03 23:02:22;;;;;;;1.90;0.88;;;14.40;99.90;;;;;;20534979;28;20058;-86
2021/08/03 23:12:23;;;;;;;3.17;1.10;;;14.40;99.90;;;;;;20556119;28;20072;-86
2021/08/03 23:22:24;;;;;;;2.33;0.93;;;14.30;99.90;;;;;;20545273;28;20085;-86
2021/08/03 23:32:26;;;;;;;2.60;1.17;;;14.20;99.90;;;;;;20582483;28;20047;-86
2021/08/03 23:42:27;;;;;;;2.38;0.70;;;14.20;99.90;;;;;;20567408;28;20051;-86
2021/08/03 23:52:28;;;;;;;2.50;0.73;;;14.10;99.90;;;;;;20524883;28;20047;-86
